Mankato, Kansas
Current Conditions -  °F | °C
As of 9:55 AM on Wednesday 26 Nov 2014 (Local Time) from KCNK Reporting Station
Overcast Overcast  
Wind Chill: 25°   Ceiling: 2900
Heat Index: 36°   Visibility: 10mi
Dew Point: 25°   Wind: 22mph
Humidity: 64%   Direction: 320°NW
Pressure: 30.12"   Gusts: 30mph
Location:  39.79°N, 98.21°W
Report Text: KCNK 261555Z AUTO 32019G26KT 10SM BKN029 OVC038 02/M04 A3012 RMK AO2 PK WND 31035/1516 SLP205 T00221039
Loading
Personal Weather Stations






























Interactive Weather Map New forecast layout! Learn more

10-Day Weather Forecast

Advertisements
Track Severe Weather on mobile